createdAt,value
2023-05-03T19:16:34.194Z,36.26
2023-05-03T19:19:05.471Z,35.99
2023-05-03T19:21:41.542Z,36.06
2023-05-03T19:24:14.150Z,37.29
2023-05-03T19:26:43.713Z,38.42
2023-05-03T19:29:13.139Z,38.58
2023-05-03T19:31:48.841Z,37.37
2023-05-03T19:34:21.638Z,38.64
2023-05-03T19:36:50.994Z,39.85
2023-05-03T19:39:20.540Z,38.49
2023-05-03T19:41:53.009Z,37.48
2023-05-03T19:44:22.659Z,37.69
2023-05-03T19:46:56.111Z,38.26
2023-05-03T19:49:25.883Z,39.69
2023-05-03T19:51:56.005Z,40.86
2023-05-03T19:54:26.275Z,38.94
2023-05-03T19:56:56.580Z,38.92
2023-05-03T19:59:29.491Z,39.33
2023-05-03T20:02:00.776Z,40.59
2023-05-03T20:04:30.542Z,39.22
2023-05-03T20:06:59.862Z,39.02
2023-05-03T20:09:29.352Z,39.52
2023-05-03T20:11:59.871Z,41.22
2023-05-03T20:14:30.735Z,40.87
2023-05-03T20:17:02.192Z,39.82
2023-05-03T20:19:31.604Z,40.24
2023-05-03T20:22:01.079Z,41.74
2023-05-03T20:24:30.601Z,41.49
2023-05-03T20:26:59.982Z,41.59
2023-05-03T20:29:29.799Z,41.61
2023-05-03T20:32:00.708Z,40.86
2023-05-03T20:34:30.455Z,39.70
2023-05-03T20:37:00.183Z,40.68
2023-05-03T20:39:30.004Z,40.15
2023-05-03T20:41:59.455Z,40.67
2023-05-03T20:44:29.101Z,40.79
2023-05-03T20:46:58.179Z,40.38
2023-05-03T20:49:30.123Z,40.96
2023-05-03T20:51:59.422Z,40.88
2023-05-03T20:54:28.857Z,41.74
2023-05-03T20:56:58.332Z,41.81
2023-05-03T20:59:29.181Z,41.52
2023-05-03T21:01:58.903Z,41.51
2023-05-03T21:04:29.930Z,41.03
2023-05-03T21:06:59.210Z,39.98
2023-05-03T21:09:28.968Z,40.19
2023-05-03T21:11:58.627Z,40.38
2023-05-03T21:14:28.955Z,40.13
2023-05-03T21:16:58.261Z,41.15
2023-05-03T21:19:29.119Z,41.65
2023-05-03T21:21:58.518Z,41.75
2023-05-03T21:24:29.362Z,42.09
2023-05-03T21:26:58.885Z,41.96
2023-05-03T21:29:28.524Z,41.44
2023-05-03T21:31:57.836Z,41.03
2023-05-03T21:34:28.820Z,41.20
2023-05-03T21:36:58.252Z,41.84
2023-05-03T21:39:27.940Z,41.21
2023-05-03T21:41:57.321Z,39.98
2023-05-03T21:44:26.815Z,40.70
2023-05-03T21:46:56.576Z,41.03
2023-05-03T21:49:26.351Z,42.18
2023-05-03T21:51:57.065Z,42.41
2023-05-03T21:54:27.602Z,41.54
2023-05-03T21:56:58.032Z,40.63
2023-05-03T21:59:27.618Z,41.18
2023-05-03T22:01:56.959Z,41.04
2023-05-03T22:04:26.726Z,41.94
2023-05-03T22:06:57.581Z,41.64
2023-05-03T22:09:27.176Z,41.55
2023-05-03T22:11:56.311Z,40.52
2023-05-03T22:14:25.914Z,41.14
2023-05-03T22:16:55.093Z,41.31
2023-05-03T22:19:24.706Z,41.48
2023-05-03T22:21:53.893Z,41.52
2023-05-03T22:24:26.710Z,42.26
2023-05-03T22:26:55.960Z,41.65
2023-05-03T22:29:25.686Z,42.06
2023-05-03T22:31:54.913Z,41.64
2023-05-03T22:34:24.505Z,42.76
2023-05-03T22:36:53.703Z,42.01
2023-05-03T22:39:24.570Z,41.41
2023-05-03T22:41:53.817Z,41.86
2023-05-03T22:44:23.390Z,42.13
2023-05-03T22:46:52.578Z,41.20
2023-05-03T22:49:22.147Z,40.68
2023-05-03T22:51:51.837Z,41.39
2023-05-03T22:54:21.977Z,41.84
2023-05-03T22:56:54.732Z,41.63
2023-05-03T22:59:24.125Z,41.77
2023-05-03T23:01:53.486Z,41.70
2023-05-03T23:04:22.905Z,42.09
2023-05-03T23:06:53.528Z,42.00
2023-05-03T23:09:22.959Z,42.02
2023-05-03T23:11:53.607Z,42.37
2023-05-03T23:14:22.963Z,43.12
2023-05-03T23:16:52.300Z,43.32
2023-05-03T23:19:21.909Z,43.90
2023-05-03T23:21:51.212Z,44.40
2023-05-03T23:24:20.808Z,43.95
2023-05-03T23:26:49.985Z,43.13
2023-05-03T23:29:21.367Z,42.37
2023-05-03T23:31:50.930Z,41.83
2023-05-03T23:34:20.844Z,42.04
2023-05-03T23:36:50.028Z,42.46
2023-05-03T23:39:19.375Z,41.94
2023-05-03T23:41:48.498Z,41.41
2023-05-03T23:44:17.957Z,42.04
2023-05-03T23:46:48.848Z,41.03
2023-05-03T23:49:19.771Z,41.64
2023-05-03T23:51:48.992Z,42.13
2023-05-03T23:54:18.418Z,41.80
2023-05-03T23:56:47.646Z,41.29
2023-05-03T23:59:17.090Z,41.36
